Time;durP1;ratioP1;P1;durP2;ratioP2;P2;SDS_P1;SDS_P2;PMS_P1;PMS_P2;Temp;Humidity;BMP_temperature;BMP_pressure;BME280_temperature;BME280_humidity;BME280_pressure;Samples;Min_cycle;Max_cycle;Signal;HPM_P1;HPM_P2
2021/06/20 00:00:20;;;;;;;3.40;0.50;;;;;;;;;;5032581;28;20084;-52
2021/06/20 00:02:47;;;;;;;0.73;0.33;;;;;;;;;;5032513;28;20296;-52
2021/06/20 00:05:16;;;;;;;0.87;0.20;;;;;;;;;;5032502;28;20021;-52
2021/06/20 00:07:44;;;;;;;3.43;0.60;;;;;;;;;;5032614;28;20101;-52
2021/06/20 00:10:12;;;;;;;1.20;0.57;;;;;;;;;;5032313;28;20539;-53
2021/06/20 00:12:39;;;;;;;0.70;0.50;;;;;;;;;;5032234;28;20040;-52
2021/06/20 00:15:08;;;;;;;2.67;0.50;;;;;;;;;;5032223;28;20032;-52
2021/06/20 00:17:35;;;;;;;4.03;1.13;;;;;;;;;;5032200;28;20029;-52
2021/06/20 00:20:01;;;;;;;2.03;0.60;;;;;;;;;;5032376;28;20067;-52
2021/06/20 00:22:28;;;;;;;1.70;0.43;;;;;;;;;;5032292;28;20022;-52
2021/06/20 00:24:55;;;;;;;1.13;0.43;;;;;;;;;;5032130;28;20022;-52
2021/06/20 00:27:22;;;;;;;4.10;0.50;;;;;;;;;;5032124;28;20104;-52
2021/06/20 00:29:48;;;;;;;3.50;0.63;;;;;;;;;;5032287;28;20025;-52
2021/06/20 00:32:15;;;;;;;4.27;0.70;;;;;;;;;;5033354;28;20500;-52
2021/06/20 00:34:42;;;;;;;1.80;0.70;;;;;;;;;;5032085;28;20032;-52
2021/06/20 00:37:09;;;;;;;3.83;0.50;;;;;;;;;;5034997;28;20064;-53
2021/06/20 00:39:36;;;;;;;2.37;0.60;;;;;;;;;;5036399;28;20104;-52
2021/06/20 00:42:03;;;;;;;2.40;0.70;;;;;;;;;;5035675;28;20048;-52
2021/06/20 00:44:29;;;;;;;2.77;0.70;;;;;;;;;;5035536;28;20037;-52
2021/06/20 00:46:56;;;;;;;1.87;0.67;;;;;;;;;;5017889;28;20105;-52
2021/06/20 00:49:26;;;;;;;2.80;0.57;;;;;;;;;;5035636;28;20034;-52
2021/06/20 00:51:56;;;;;;;3.07;0.77;;;;;;;;;;5035422;28;20437;-52
2021/06/20 00:54:29;;;;;;;0.70;0.37;;;;;;;;;;5035502;28;20036;-52
2021/06/20 00:57:01;;;;;;;2.67;0.53;;;;;;;;;;5035338;28;20042;-52
2021/06/20 00:59:35;;;;;;;1.80;0.30;;;;;;;;;;5032854;28;20041;-52
2021/06/20 01:02:02;;;;;;;4.68;0.50;;;;;;;;;;5034991;28;20045;-52
2021/06/20 01:04:29;;;;;;;0.87;0.50;;;;;;;;;;5035399;28;20045;-52
2021/06/20 01:06:56;;;;;;;0.73;0.20;;;;;;;;;;5035028;28;20022;-52
2021/06/20 01:09:24;;;;;;;2.47;0.40;;;;;;;;;;5035240;28;20104;-52
2021/06/20 01:11:51;;;;;;;1.47;0.70;;;;;;;;;;5034869;28;20526;-52
2021/06/20 01:14:18;;;;;;;4.20;0.57;;;;;;;;;;5034862;28;20021;-52
2021/06/20 01:16:45;;;;;;;2.77;0.53;;;;;;;;;;5034898;28;20080;-52
2021/06/20 01:19:13;;;;;;;0.87;0.40;;;;;;;;;;5035000;28;20026;-52
2021/06/20 01:21:40;;;;;;;3.03;0.53;;;;;;;;;;5034904;28;20042;-52
2021/06/20 01:24:07;;;;;;;3.20;0.60;;;;;;;;;;5034675;28;20109;-52
2021/06/20 01:26:51;;;;;;;2.10;0.60;;;;;;;;;;5034663;28;20514;-52
2021/06/20 01:29:32;;;;;;;;;;;;;;;;;;;;;
2021/06/20 01:32:04;;;;;;;1.47;0.50;;;;;;;;;;5034601;28;20053;-52
2021/06/20 01:34:37;;;;;;;2.63;0.90;;;;;;;;;;5034712;28;20095;-52
2021/06/20 01:37:12;;;;;;;1.57;0.90;;;;;;;;;;5034851;28;20038;-52
2021/06/20 01:39:45;;;;;;;;;;;;;;;;;;5035089;28;20018;-53
2021/06/20 01:42:15;;;;;;;3.20;0.97;;;;;;;;;;5034361;28;19905;-53
2021/06/20 01:45:09;;;;;;;3.23;0.87;;;;;;;;;;5034272;28;20495;-53
2021/06/20 01:47:45;;;;;;;1.93;0.70;;;;;;;;;;5030617;28;20030;-53
2021/06/20 01:50:16;;;;;;;5.07;0.90;;;;;;;;;;5034057;28;20034;-53
2021/06/20 01:52:50;;;;;;;2.93;1.10;;;;;;;;;;5033984;28;20044;-53
2021/06/20 01:55:23;;;;;;;2.25;0.55;;;;;;;;;;5034408;28;20056;-53
2021/06/20 01:57:52;;;;;;;3.47;1.23;;;;;;;;;;5033789;28;20447;-52
2021/06/20 02:00:22;;;;;;;5.50;1.10;;;;;;;;;;5034085;28;20096;-52
2021/06/20 02:03:01;;;;;;;4.47;0.87;;;;;;;;;;5030624;28;20057;-53
2021/06/20 02:05:28;;;;;;;4.57;0.80;;;;;;;;;;5033707;28;20431;-52
2021/06/20 02:07:59;;;;;;;3.50;0.70;;;;;;;;;;5034177;28;20030;-52
2021/06/20 02:10:29;;;;;;;3.30;1.47;;;;;;;;;;5032401;28;20113;-53
2021/06/20 02:13:06;;;;;;;7.10;1.40;;;;;;;;;;5033966;28;20431;-52
2021/06/20 02:15:36;;;;;;;5.00;2.30;;;;;;;;;;5034101;28;20022;-52
2021/06/20 02:18:08;;;;;;;5.87;2.57;;;;;;;;;;5033502;28;20411;-52
2021/06/20 02:20:39;;;;;;;4.97;2.50;;;;;;;;;;5033700;28;20384;-52
2021/06/20 02:23:14;;;;;;;7.50;2.00;;;;;;;;;;5033630;28;20056;-53
2021/06/20 02:26:03;;;;;;;5.90;1.63;;;;;;;;;;5033887;28;20036;-52
2021/06/20 02:28:30;;;;;;;4.13;1.90;;;;;;;;;;5033177;28;20033;-52
2021/06/20 02:31:15;;;;;;;8.57;1.50;;;;;;;;;;5033995;28;20029;-53
2021/06/20 02:33:55;;;;;;;5.18;2.15;;;;;;;;;;5034887;28;20057;-52
2021/06/20 02:36:37;;;;;;;7.60;2.80;;;;;;;;;;5030961;28;20088;-53
2021/06/20 02:39:20;;;;;;;8.57;2.90;;;;;;;;;;5031327;28;20041;-52
2021/06/20 02:41:59;;;;;;;4.63;1.90;;;;;;;;;;5032223;28;20103;-52
2021/06/20 02:44:42;;;;;;;5.07;2.30;;;;;;;;;;5033685;28;20419;-54
2021/06/20 02:47:22;;;;;;;6.63;2.03;;;;;;;;;;5033110;28;20485;-55
2021/06/20 02:49:57;;;;;;;4.47;1.67;;;;;;;;;;5033336;28;20033;-54
2021/06/20 02:52:28;;;;;;;3.60;1.27;;;;;;;;;;5032188;28;20120;-52
2021/06/20 02:55:00;;;;;;;4.17;1.00;;;;;;;;;;5033215;28;20026;-52
2021/06/20 02:57:29;;;;;;;4.80;1.50;;;;;;;;;;5032650;28;20403;-52
2021/06/20 03:00:11;;;;;;;4.50;0.87;;;;;;;;;;5032734;28;20026;-52
2021/06/20 03:02:46;;;;;;;7.07;1.10;;;;;;;;;;5033099;28;20030;-52
2021/06/20 03:05:17;;;;;;;6.83;1.03;;;;;;;;;;5031788;28;20041;-52
2021/06/20 03:07:51;;;;;;;3.37;0.80;;;;;;;;;;5031601;28;20373;-52
2021/06/20 03:10:27;;;;;;;3.63;0.80;;;;;;;;;;5033077;28;20534;-52
2021/06/20 03:13:06;;;;;;;3.47;0.57;;;;;;;;;;5032920;28;20308;-52
2021/06/20 03:15:40;;;;;;;3.77;0.70;;;;;;;;;;5031972;28;20037;-51
2021/06/20 03:18:10;;;;;;;7.22;0.80;;;;;;;;;;5032571;28;20044;-52
2021/06/20 03:20:38;;;;;;;5.93;0.90;;;;;;;;;;5030133;28;20384;-52
2021/06/20 03:23:10;;;;;;;2.70;0.63;;;;;;;;;;5032799;28;20167;-52
2021/06/20 03:25:38;;;;;;;1.50;0.50;;;;;;;;;;5032719;28;20100;-52
2021/06/20 03:28:14;;;;;;;3.40;0.63;;;;;;;;;;5032729;28;20534;-52
2021/06/20 03:30:52;;;;;;;3.73;0.73;;;;;;;;;;5032487;28;20139;-52
2021/06/20 03:33:26;;;;;;;5.17;0.70;;;;;;;;;;5033794;28;20042;-52
2021/06/20 03:35:53;;;;;;;7.93;0.95;;;;;;;;;;5032935;28;20500;-52
2021/06/20 03:38:20;;;;;;;3.97;0.80;;;;;;;;;;5032631;28;20416;-52
2021/06/20 03:40:48;;;;;;;1.30;0.50;;;;;;;;;;5032516;28;20036;-52
2021/06/20 03:43:15;;;;;;;2.40;0.80;;;;;;;;;;5032451;28;20104;-52
2021/06/20 03:45:42;;;;;;;4.30;1.60;;;;;;;;;;5032540;28;20030;-52
2021/06/20 03:48:09;;;;;;;2.73;1.00;;;;;;;;;;5032652;28;20464;-52
2021/06/20 03:50:36;;;;;;;2.67;1.27;;;;;;;;;;5032502;28;20435;-52
2021/06/20 03:53:06;;;;;;;5.27;1.40;;;;;;;;;;5032586;28;20117;-52
2021/06/20 03:55:33;;;;;;;6.67;1.83;;;;;;;;;;5032653;28;20451;-52
2021/06/20 03:58:01;;;;;;;3.73;1.10;;;;;;;;;;5032376;28;20038;-52
2021/06/20 04:00:29;;;;;;;5.97;1.60;;;;;;;;;;5032476;28;20381;-52
2021/06/20 04:02:56;;;;;;;4.70;1.93;;;;;;;;;;5032447;28;20022;-52
2021/06/20 04:05:34;;;;;;;4.37;1.73;;;;;;;;;;5032520;28;20017;-52
2021/06/20 04:08:01;;;;;;;9.07;2.07;;;;;;;;;;5031812;28;20108;-52
2021/06/20 04:10:40;;;;;;;6.13;1.93;;;;;;;;;;5034730;28;20156;-52
2021/06/20 04:13:18;;;;;;;5.47;1.60;;;;;;;;;;5036520;28;20029;-52
2021/06/20 04:16:08;;;;;;;5.07;1.87;;;;;;;;;;5034350;28;20384;-52
2021/06/20 04:18:38;;;;;;;4.30;1.20;;;;;;;;;;5036193;28;20041;-52
2021/06/20 04:21:13;;;;;;;2.17;1.20;;;;;;;;;;5035978;28;20024;-52
2021/06/20 04:23:50;;;;;;;1.50;0.80;;;;;;;;;;5035533;28;20113;-52
2021/06/20 04:26:19;;;;;;;6.40;1.27;;;;;;;;;;5036009;28;20384;-52
2021/06/20 04:28:55;;;;;;;2.07;0.90;;;;;;;;;;5035670;28;20109;-51
2021/06/20 04:31:22;;;;;;;5.43;1.70;;;;;;;;;;5035430;28;20060;-52
2021/06/20 04:33:56;;;;;;;3.33;1.47;;;;;;;;;;5037325;28;20069;-52
2021/06/20 04:36:23;;;;;;;4.10;1.30;;;;;;;;;;5017990;28;20133;-52
2021/06/20 04:38:50;;;;;;;6.10;1.33;;;;;;;;;;5018031;28;20037;-51
2021/06/20 04:41:20;;;;;;;4.23;1.20;;;;;;;;;;5035762;28;20150;-52
2021/06/20 04:46:20;;;;;;;3.47;0.57;;;;;;;;;;5035677;28;20025;-52
2021/06/20 04:48:48;;;;;;;4.13;0.83;;;;;;;;;;5035476;28;20026;-52
2021/06/20 04:51:15;;;;;;;1.00;0.50;;;;;;;;;;5035570;28;20026;-52
2021/06/20 04:53:42;;;;;;;6.10;1.50;;;;;;;;;;5017763;28;20025;-52
2021/06/20 04:56:09;;;;;;;9.63;1.90;;;;;;;;;;5035485;28;20029;-51
2021/06/20 04:58:36;;;;;;;5.63;1.73;;;;;;;;;;5035534;28;20124;-52
2021/06/20 05:01:04;;;;;;;14.27;1.50;;;;;;;;;;5035219;28;20168;-52
2021/06/20 05:03:31;;;;;;;5.43;1.13;;;;;;;;;;5035279;28;20388;-52
2021/06/20 05:05:58;;;;;;;6.37;1.33;;;;;;;;;;5035326;28;20061;-52
2021/06/20 05:08:29;;;;;;;4.90;1.70;;;;;;;;;;5035310;28;20025;-52
2021/06/20 05:11:00;;;;;;;19.70;9.77;;;;;;;;;;5034684;28;20030;-52
2021/06/20 05:13:33;;;;;;;7.47;3.43;;;;;;;;;;5035236;28;20017;-52
2021/06/20 05:16:01;;;;;;;6.10;3.10;;;;;;;;;;5034601;28;20031;-52
2021/06/20 05:18:28;;;;;;;11.73;1.87;;;;;;;;;;5034852;28;20112;-52
2021/06/20 05:20:55;;;;;;;5.90;1.60;;;;;;;;;;5016715;28;20117;-52
2021/06/20 05:23:22;;;;;;;5.33;1.03;;;;;;;;;;5034649;28;20385;-52
2021/06/20 05:25:50;;;;;;;8.47;0.70;;;;;;;;;;5034935;28;20033;-52
2021/06/20 05:28:17;;;;;;;4.20;1.00;;;;;;;;;;5034592;28;20092;-52
2021/06/20 05:30:47;;;;;;;3.97;0.90;;;;;;;;;;5034845;28;20040;-52
2021/06/20 05:33:15;;;;;;;5.50;0.67;;;;;;;;;;5036071;28;20053;-52
2021/06/20 05:35:43;;;;;;;2.23;0.80;;;;;;;;;;5034771;28;20037;-52
2021/06/20 05:38:10;;;;;;;1.00;0.50;;;;;;;;;;5034470;28;20041;-52
2021/06/20 05:40:38;;;;;;;0.93;0.50;;;;;;;;;;5034558;28;20021;-51
2021/06/20 05:43:08;;;;;;;6.13;1.17;;;;;;;;;;5034112;28;20041;-52
2021/06/20 05:45:39;;;;;;;11.43;1.50;;;;;;;;;;5034637;28;20029;-52
2021/06/20 05:48:10;;;;;;;8.43;1.30;;;;;;;;;;5034536;28;20029;-52
2021/06/20 05:50:37;;;;;;;5.67;1.13;;;;;;;;;;5034357;28;20057;-52
2021/06/20 05:53:05;;;;;;;4.93;0.77;;;;;;;;;;5034476;28;20048;-52
2021/06/20 05:55:32;;;;;;;8.17;1.57;;;;;;;;;;5034172;28;20030;-52
2021/06/20 05:57:59;;;;;;;3.03;0.97;;;;;;;;;;5034080;28;20072;-52
2021/06/20 06:00:27;;;;;;;5.53;1.10;;;;;;;;;;5034155;28;20036;-52
2021/06/20 06:02:54;;;;;;;4.70;0.80;;;;;;;;;;5034281;28;20444;-51
2021/06/20 06:05:21;;;;;;;5.67;1.23;;;;;;;;;;5034223;28;20021;-51
2021/06/20 06:07:51;;;;;;;3.20;0.43;;;;;;;;;;5034090;28;20530;-52
2021/06/20 06:10:25;;;;;;;3.80;0.63;;;;;;;;;;5033894;28;20032;-52
2021/06/20 06:12:53;;;;;;;2.87;0.60;;;;;;;;;;5032457;28;20087;-52
2021/06/20 06:15:24;;;;;;;1.93;0.80;;;;;;;;;;5033736;28;20041;-52
2021/06/20 06:17:55;;;;;;;3.43;1.47;;;;;;;;;;5033869;28;20029;-52
2021/06/20 06:20:28;;;;;;;6.83;1.10;;;;;;;;;;5033882;28;20029;-52
2021/06/20 06:23:04;;;;;;;8.30;3.13;;;;;;;;;;5033737;28;20026;-52
2021/06/20 06:25:32;;;;;;;5.47;2.23;;;;;;;;;;5033859;28;20030;-52
2021/06/20 06:28:05;;;;;;;4.17;1.50;;;;;;;;;;5032618;28;20388;-51
2021/06/20 06:30:36;;;;;;;3.10;1.07;;;;;;;;;;5033548;28;20040;-51
2021/06/20 06:33:05;;;;;;;4.27;1.53;;;;;;;;;;5034032;28;20057;-51
2021/06/20 06:35:35;;;;;;;4.77;1.90;;;;;;;;;;5033078;28;20029;-52
2021/06/20 06:38:02;;;;;;;4.60;2.00;;;;;;;;;;5033029;28;20044;-52
2021/06/20 06:40:30;;;;;;;4.10;1.50;;;;;;;;;;5033000;28;20021;-52
2021/06/20 06:42:57;;;;;;;4.20;1.43;;;;;;;;;;5033041;28;20036;-52
2021/06/20 06:45:25;;;;;;;4.53;0.97;;;;;;;;;;5033219;28;20065;-52
2021/06/20 06:47:55;;;;;;;4.17;1.57;;;;;;;;;;5015563;28;20040;-51
2021/06/20 06:50:24;;;;;;;8.03;1.80;;;;;;;;;;5032622;28;20038;-52
2021/06/20 06:52:54;;;;;;;4.80;1.97;;;;;;;;;;5031828;28;20456;-52
2021/06/20 06:55:24;;;;;;;5.30;1.80;;;;;;;;;;5033488;28;20100;-52
2021/06/20 06:57:56;;;;;;;3.13;1.40;;;;;;;;;;5032743;28;20365;-52
2021/06/20 07:00:34;;;;;;;1.73;0.60;;;;;;;;;;5033161;28;20515;-52
2021/06/20 07:03:12;;;;;;;1.80;0.93;;;;;;;;;;5033161;28;20350;-52
2021/06/20 07:05:43;;;;;;;2.67;0.70;;;;;;;;;;5032818;28;20071;-52
2021/06/20 07:08:15;;;;;;;2.93;0.60;;;;;;;;;;5032681;28;20041;-52
2021/06/20 07:10:44;;;;;;;6.70;0.97;;;;;;;;;;5032864;28;20472;-52
2021/06/20 07:13:31;;;;;;;6.83;1.07;;;;;;;;;;5032958;28;20031;-51
2021/06/20 07:16:02;;;;;;;2.77;0.90;;;;;;;;;;5015136;28;20484;-51
2021/06/20 07:18:33;;;;;;;6.03;1.00;;;;;;;;;;5014149;28;20077;-52
2021/06/20 07:21:03;;;;;;;7.37;0.80;;;;;;;;;;5032814;28;20026;-51
2021/06/20 07:23:33;;;;;;;6.43;1.03;;;;;;;;;;5032844;28;20049;-51
2021/06/20 07:26:04;;;;;;;4.10;0.90;;;;;;;;;;5032456;28;20065;-51
2021/06/20 07:28:38;;;;;;;5.10;0.57;;;;;;;;;;5031030;28;20065;-51
2021/06/20 07:31:16;;;;;;;1.17;0.70;;;;;;;;;;5032736;28;20021;-51
2021/06/20 07:33:49;;;;;;;5.93;0.87;;;;;;;;;;5034006;28;20163;-51
2021/06/20 07:36:27;;;;;;;3.47;0.60;;;;;;;;;;5032577;28;20026;-51
2021/06/20 07:38:58;;;;;;;3.23;0.83;;;;;;;;;;5032435;28;20459;-51
2021/06/20 07:41:28;;;;;;;4.67;0.97;;;;;;;;;;5032423;28;20043;-51
2021/06/20 07:44:04;;;;;;;3.90;1.00;;;;;;;;;;5032691;28;20068;-51
2021/06/20 07:46:34;;;;;;;6.67;1.33;;;;;;;;;;5036419;28;20495;-52
2021/06/20 07:49:04;;;;;;;4.23;0.80;;;;;;;;;;5035408;28;20126;-51
2021/06/20 07:51:34;;;;;;;4.17;0.97;;;;;;;;;;5036713;28;20034;-52
2021/06/20 07:54:04;;;;;;;2.43;0.90;;;;;;;;;;5036425;28;20033;-52
2021/06/20 07:56:34;;;;;;;5.00;1.23;;;;;;;;;;5036250;28;20041;-51
2021/06/20 07:59:06;;;;;;;3.40;0.87;;;;;;;;;;5036108;28;20034;-51
2021/06/20 08:01:39;;;;;;;2.10;0.60;;;;;;;;;;5036429;28;20447;-51
2021/06/20 08:04:13;;;;;;;4.80;0.80;;;;;;;;;;5036130;28;20037;-51
2021/06/20 08:06:43;;;;;;;6.90;1.63;;;;;;;;;;5036499;28;20486;-52
2021/06/20 08:09:20;;;;;;;9.37;1.83;;;;;;;;;;5036390;28;20075;-51
2021/06/20 08:11:49;;;;;;;9.93;2.00;;;;;;;;;;5036306;28;20017;-52
2021/06/20 08:14:20;;;;;;;8.53;1.80;;;;;;;;;;5035959;28;20030;-52
2021/06/20 08:16:51;;;;;;;8.23;0.77;;;;;;;;;;5035836;28;20065;-52
2021/06/20 08:19:21;;;;;;;4.13;1.10;;;;;;;;;;5018151;28;20021;-51
2021/06/20 08:21:59;;;;;;;6.43;1.00;;;;;;;;;;5036074;28;20025;-51
2021/06/20 08:24:28;;;;;;;3.93;0.53;;;;;;;;;;5036146;28;20017;-51
2021/06/20 08:26:59;;;;;;;4.37;0.53;;;;;;;;;;5035687;28;20036;-52
2021/06/20 08:29:29;;;;;;;7.87;0.90;;;;;;;;;;5036023;28;20388;-51
2021/06/20 08:32:00;;;;;;;9.40;1.97;;;;;;;;;;5035790;28;20029;-52
2021/06/20 08:34:31;;;;;;;14.00;4.20;;;;;;;;;;5036750;28;20136;-51
2021/06/20 08:37:02;;;;;;;11.03;4.10;;;;;;;;;;5035747;28;20033;-51
2021/06/20 08:39:29;;;;;;;14.60;4.23;;;;;;;;;;5035764;28;20028;-51
2021/06/20 08:41:56;;;;;;;9.93;3.27;;;;;;;;;;5035652;28;20026;-51
2021/06/20 08:44:29;;;;;;;5.27;1.73;;;;;;;;;;5035465;28;20037;-51
2021/06/20 08:46:56;;;;;;;10.00;2.40;;;;;;;;;;5035668;28;20029;-51
2021/06/20 08:49:23;;;;;;;8.20;2.40;;;;;;;;;;5035655;28;20029;-51
2021/06/20 08:52:05;;;;;;;8.63;2.10;;;;;;;;;;5035410;28;20049;-51
2021/06/20 08:54:32;;;;;;;7.60;1.40;;;;;;;;;;5035308;28;20033;-52
2021/06/20 08:56:59;;;;;;;5.50;0.70;;;;;;;;;;5034192;28;20043;-51
2021/06/20 08:59:26;;;;;;;1.50;0.60;;;;;;;;;;5035403;28;20513;-51
2021/06/20 09:01:54;;;;;;;1.97;0.47;;;;;;;;;;5035278;28;20062;-51
2021/06/20 09:04:27;;;;;;;4.83;1.40;;;;;;;;;;5035283;28;20033;-51
2021/06/20 09:06:54;;;;;;;3.97;0.80;;;;;;;;;;5035291;28;20133;-50
2021/06/20 09:09:28;;;;;;;5.53;1.53;;;;;;;;;;5035346;28;20033;-51
2021/06/20 09:12:05;;;;;;;5.70;1.73;;;;;;;;;;5035147;28;20022;-52
2021/06/20 09:14:40;;;;;;;9.20;2.70;;;;;;;;;;5035240;28;20037;-51
2021/06/20 09:17:06;;;;;;;;;;;;;;;;;;5035347;28;20087;-51
2021/06/20 09:19:34;;;;;;;19.10;3.77;;;;;;;;;;5035158;28;19909;-52
2021/06/20 09:22:04;;;;;;;7.83;2.50;;;;;;;;;;5034792;28;20025;-51
2021/06/20 09:24:31;;;;;;;8.03;2.03;;;;;;;;;;5034872;28;20412;-52
2021/06/20 09:26:59;;;;;;;10.13;2.00;;;;;;;;;;5034874;28;20100;-52
2021/06/20 09:29:34;;;;;;;9.23;2.80;;;;;;;;;;5034776;28;20484;-52
2021/06/20 09:32:02;;;;;;;7.10;2.10;;;;;;;;;;5034661;28;20033;-51
2021/06/20 09:34:29;;;;;;;10.53;2.53;;;;;;;;;;5036205;28;20057;-51
2021/06/20 09:37:03;;;;;;;4.83;1.63;;;;;;;;;;5034745;28;20073;-52
2021/06/20 09:39:30;;;;;;;6.77;2.07;;;;;;;;;;5034687;28;20485;-52
2021/06/20 09:41:57;;;;;;;10.57;2.83;;;;;;;;;;5034517;28;20030;-51
2021/06/20 09:44:34;;;;;;;7.07;1.80;;;;;;;;;;5034443;28;20488;-51
2021/06/20 09:47:01;;;;;;;6.00;1.70;;;;;;;;;;5034555;28;20021;-51
2021/06/20 09:49:28;;;;;;;5.70;1.70;;;;;;;;;;5034376;28;20472;-51
2021/06/20 09:51:55;;;;;;;9.23;2.03;;;;;;;;;;5034790;28;20034;-52
2021/06/20 09:54:33;;;;;;;10.50;2.03;;;;;;;;;;5034362;28;20021;-52
2021/06/20 09:57:00;;;;;;;7.30;1.00;;;;;;;;;;5034326;28;20116;-51
2021/06/20 09:59:31;;;;;;;6.23;1.60;;;;;;;;;;5034237;28;20029;-52
2021/06/20 10:02:09;;;;;;;11.27;1.43;;;;;;;;;;5034113;28;20033;-51
2021/06/20 10:04:40;;;;;;;6.20;1.23;;;;;;;;;;5034109;28;20427;-51
2021/06/20 10:07:10;;;;;;;5.63;0.90;;;;;;;;;;5033813;28;20105;-52
2021/06/20 10:09:37;;;;;;;3.37;0.90;;;;;;;;;;5033996;28;20415;-51
2021/06/20 10:12:05;;;;;;;7.60;1.20;;;;;;;;;;5033915;28;20384;-51
2021/06/20 10:14:33;;;;;;;2.87;0.90;;;;;;;;;;5034078;28;20029;-51
2021/06/20 10:17:03;;;;;;;7.67;1.10;;;;;;;;;;5033780;28;20033;-51
2021/06/20 10:19:31;;;;;;;3.77;0.90;;;;;;;;;;5016280;28;20544;-51
2021/06/20 10:22:08;;;;;;;5.13;1.07;;;;;;;;;;5033553;28;20033;-51
2021/06/20 10:24:51;;;;;;;3.57;0.73;;;;;;;;;;5033742;28;20035;-52
2021/06/20 10:27:32;;;;;;;4.27;0.70;;;;;;;;;;5033931;28;20034;-51
2021/06/20 10:30:00;;;;;;;8.87;0.70;;;;;;;;;;5033823;28;20026;-52
2021/06/20 10:32:28;;;;;;;2.43;0.60;;;;;;;;;;5034985;28;20033;-54
2021/06/20 10:35:02;;;;;;;1.80;0.70;;;;;;;;;;5035200;28;20506;-51
2021/06/20 10:37:39;;;;;;;4.32;0.77;;;;;;;;;;5033444;28;20449;-52
2021/06/20 10:40:18;;;;;;;3.90;0.63;;;;;;;;;;5033459;28;20026;-52
2021/06/20 10:42:46;;;;;;;3.87;0.70;;;;;;;;;;5033537;28;20022;-52
2021/06/20 10:45:13;;;;;;;4.23;0.50;;;;;;;;;;5033509;28;20148;-51
2021/06/20 10:47:42;;;;;;;1.20;0.60;;;;;;;;;;5033395;28;20080;-51
2021/06/20 10:50:10;;;;;;;1.40;0.60;;;;;;;;;;5033344;28;20385;-51
2021/06/20 10:52:38;;;;;;;3.80;0.60;;;;;;;;;;5033091;28;20079;-52
2021/06/20 10:55:05;;;;;;;3.37;0.50;;;;;;;;;;5033289;28;20032;-51
2021/06/20 10:57:31;;;;;;;1.40;0.60;;;;;;;;;;5033117;28;20152;-51
2021/06/20 10:59:59;;;;;;;1.27;0.47;;;;;;;;;;5033133;28;20113;-51
2021/06/20 11:02:35;;;;;;;1.27;0.40;;;;;;;;;;5033169;28;20076;-51
2021/06/20 11:05:03;;;;;;;1.80;0.40;;;;;;;;;;5033108;28;20366;-51
2021/06/20 11:07:30;;;;;;;0.97;0.30;;;;;;;;;;5033025;28;20040;-51
2021/06/20 11:09:57;;;;;;;6.87;0.60;;;;;;;;;;5032902;28;20078;-51
2021/06/20 11:12:25;;;;;;;5.47;0.60;;;;;;;;;;5032923;28;20083;-51
2021/06/20 11:14:54;;;;;;;0.83;0.50;;;;;;;;;;5033038;28;20022;-51
2021/06/20 11:17:21;;;;;;;5.20;0.73;;;;;;;;;;5032870;28;20041;-52
2021/06/20 11:19:48;;;;;;;3.73;0.43;;;;;;;;;;5032297;28;20025;-52
2021/06/20 11:22:15;;;;;;;4.23;0.43;;;;;;;;;;5032594;28;20060;-51
2021/06/20 11:24:47;;;;;;;2.50;0.43;;;;;;;;;;5032941;28;20022;-51
2021/06/20 11:27:15;;;;;;;0.70;0.50;;;;;;;;;;5032864;28;20080;-51
2021/06/20 11:29:45;;;;;;;0.53;0.40;;;;;;;;;;5032891;28;20100;-51
2021/06/20 11:32:21;;;;;;;6.20;0.70;;;;;;;;;;5032604;28;20033;-51
2021/06/20 11:34:52;;;;;;;0.70;0.50;;;;;;;;;;5034204;28;20064;-51
2021/06/20 11:37:20;;;;;;;3.30;0.50;;;;;;;;;;5032624;28;20041;-51
2021/06/20 11:39:48;;;;;;;1.40;0.50;;;;;;;;;;5032707;28;20030;-51
2021/06/20 11:42:24;;;;;;;4.87;0.37;;;;;;;;;;5032798;28;20041;-51
2021/06/20 11:44:55;;;;;;;2.83;0.50;;;;;;;;;;5015289;28;20037;-52
2021/06/20 11:47:29;;;;;;;5.63;0.60;;;;;;;;;;5032622;28;20018;-51
2021/06/20 11:49:56;;;;;;;0.30;0.30;;;;;;;;;;5032622;28;20030;-51
2021/06/20 11:52:23;;;;;;;1.47;0.73;;;;;;;;;;5032517;28;20033;-52
2021/06/20 11:55:04;;;;;;;4.53;0.60;;;;;;;;;;5032592;28;20188;-52
2021/06/20 11:57:32;;;;;;;1.90;0.57;;;;;;;;;;5032769;28;20095;-51
2021/06/20 12:00:07;;;;;;;3.47;0.70;;;;;;;;;;5032603;28;20056;-52
2021/06/20 12:02:33;;;;;;;;;;;;;;;;;;5032963;28;20536;-51
2021/06/20 12:05:00;;;;;;;2.27;0.80;;;;;;;;;;5032365;28;19905;-51
2021/06/20 12:07:27;;;;;;;1.10;0.50;;;;;;;;;;5032496;28;20069;-52
2021/06/20 12:09:54;;;;;;;2.87;1.50;;;;;;;;;;5032394;28;20034;-52
2021/06/20 12:12:21;;;;;;;4.43;0.60;;;;;;;;;;5032447;28;20068;-52
2021/06/20 12:14:58;;;;;;;3.57;0.80;;;;;;;;;;5032274;28;20048;-51
2021/06/20 12:17:25;;;;;;;1.40;0.50;;;;;;;;;;5032261;28;20046;-51
2021/06/20 12:19:51;;;;;;;1.50;0.47;;;;;;;;;;5032466;28;20076;-51
2021/06/20 12:22:19;;;;;;;1.53;0.40;;;;;;;;;;5032300;28;20420;-51
2021/06/20 12:24:47;;;;;;;8.70;0.60;;;;;;;;;;5032360;28;20053;-51
2021/06/20 12:27:16;;;;;;;3.80;1.17;;;;;;;;;;5032309;28;20384;-51
2021/06/20 12:29:43;;;;;;;1.60;0.70;;;;;;;;;;5032284;28;20060;-51
2021/06/20 12:32:17;;;;;;;0.97;0.40;;;;;;;;;;5035287;28;20033;-51
2021/06/20 12:34:46;;;;;;;2.75;0.40;;;;;;;;;;5037524;28;20060;-52
2021/06/20 12:37:13;;;;;;;2.87;0.77;;;;;;;;;;5035642;28;20532;-51
2021/06/20 12:39:53;;;;;;;0.93;0.50;;;;;;;;;;5036133;28;20109;-51
2021/06/20 12:42:21;;;;;;;4.20;0.60;;;;;;;;;;5035820;28;20084;-51
2021/06/20 12:44:55;;;;;;;6.83;0.70;;;;;;;;;;5035880;28;20021;-51
2021/06/20 12:47:35;;;;;;;3.50;0.60;;;;;;;;;;5035691;28;20018;-51
2021/06/20 12:50:02;;;;;;;2.37;0.50;;;;;;;;;;5035628;28;20424;-51
2021/06/20 12:52:36;;;;;;;3.03;0.77;;;;;;;;;;5035444;28;20124;-52
2021/06/20 12:55:15;;;;;;;6.43;2.03;;;;;;;;;;5035506;28;20029;-52
2021/06/20 12:57:49;;;;;;;3.87;1.77;;;;;;;;;;5035448;28;20052;-51
2021/06/20 13:00:16;;;;;;;4.07;1.50;;;;;;;;;;5035381;28;20025;-51
2021/06/20 13:02:43;;;;;;;2.60;1.50;;;;;;;;;;5035307;28;20032;-51
2021/06/20 13:05:10;;;;;;;4.90;1.40;;;;;;;;;;5035616;28;20021;-51
2021/06/20 13:07:37;;;;;;;4.63;1.20;;;;;;;;;;5035490;28;20045;-51
2021/06/20 13:10:13;;;;;;;9.47;2.80;;;;;;;;;;5035511;28;20030;-52
2021/06/20 13:12:40;;;;;;;5.73;1.30;;;;;;;;;;5035218;28;20056;-51
2021/06/20 13:15:14;;;;;;;4.67;1.10;;;;;;;;;;5035235;28;20026;-52
2021/06/20 13:17:42;;;;;;;4.20;1.27;;;;;;;;;;5035051;28;20041;-51
2021/06/20 13:20:09;;;;;;;7.13;1.10;;;;;;;;;;5035200;28;20021;-51
2021/06/20 13:22:36;;;;;;;2.53;0.97;;;;;;;;;;5034953;28;20123;-51
2021/06/20 13:25:03;;;;;;;2.37;1.40;;;;;;;;;;5035007;28;20021;-52
2021/06/20 13:27:30;;;;;;;6.03;0.97;;;;;;;;;;5035095;28;20025;-52
2021/06/20 13:29:56;;;;;;;6.00;1.33;;;;;;;;;;5034841;28;20480;-52
2021/06/20 13:32:23;;;;;;;4.97;1.23;;;;;;;;;;5034679;28;20049;-52
2021/06/20 13:34:50;;;;;;;3.00;1.50;;;;;;;;;;5036323;28;20120;-51
2021/06/20 13:37:17;;;;;;;4.37;1.37;;;;;;;;;;5034659;28;20296;-51
2021/06/20 13:39:44;;;;;;;4.67;1.20;;;;;;;;;;5034798;28;20562;-51
2021/06/20 13:42:11;;;;;;;4.77;1.17;;;;;;;;;;5034108;28;20063;-51
2021/06/20 13:44:38;;;;;;;5.57;1.40;;;;;;;;;;5034566;28;20018;-51
2021/06/20 13:47:04;;;;;;;4.53;1.23;;;;;;;;;;5034629;28;20035;-51
2021/06/20 13:49:34;;;;;;;2.87;1.43;;;;;;;;;;5034342;28;20026;-51
2021/06/20 13:52:01;;;;;;;2.80;1.50;;;;;;;;;;5034362;28;20045;-51
2021/06/20 13:54:30;;;;;;;4.03;1.77;;;;;;;;;;5034521;28;20096;-51
2021/06/20 13:56:57;;;;;;;4.77;1.87;;;;;;;;;;5034212;28;20033;-51
2021/06/20 13:59:25;;;;;;;7.70;2.63;;;;;;;;;;5034367;28;20037;-51
2021/06/20 14:01:53;;;;;;;6.87;2.87;;;;;;;;;;5034102;28;20032;-51
2021/06/20 14:04:20;;;;;;;7.73;2.60;;;;;;;;;;5034266;28;20101;-51
2021/06/20 14:06:47;;;;;;;9.60;2.30;;;;;;;;;;5034428;28;20034;-51
2021/06/20 14:09:14;;;;;;;6.33;3.07;;;;;;;;;;5034056;28;20034;-51
2021/06/20 14:11:41;;;;;;;8.80;3.13;;;;;;;;;;5034142;28;20029;-52
2021/06/20 14:14:08;;;;;;;9.67;3.97;;;;;;;;;;5033924;28;20021;-52
2021/06/20 14:16:35;;;;;;;7.17;3.10;;;;;;;;;;5033847;28;20392;-51
2021/06/20 14:19:02;;;;;;;7.60;2.80;;;;;;;;;;5034075;28;20021;-52
2021/06/20 14:21:28;;;;;;;6.73;2.83;;;;;;;;;;5033976;28;20037;-52
2021/06/20 14:23:56;;;;;;;8.03;2.67;;;;;;;;;;5033550;28;20104;-52
2021/06/20 14:26:23;;;;;;;4.73;3.10;;;;;;;;;;5033787;28;20029;-52
2021/06/20 14:28:49;;;;;;;10.70;2.00;;;;;;;;;;5033711;28;20013;-52
2021/06/20 14:31:16;;;;;;;5.47;1.47;;;;;;;;;;5033467;28;20116;-52
2021/06/20 14:33:43;;;;;;;2.70;1.37;;;;;;;;;;5034951;28;20053;-52
2021/06/20 14:36:10;;;;;;;2.30;1.20;;;;;;;;;;5033742;28;20026;-52
2021/06/20 14:38:38;;;;;;;4.27;1.53;;;;;;;;;;5033583;28;20109;-52
2021/06/20 14:41:06;;;;;;;4.63;1.33;;;;;;;;;;5032125;28;20388;-52
2021/06/20 14:43:33;;;;;;;1.80;0.97;;;;;;;;;;5033442;28;20441;-52
2021/06/20 14:46:00;;;;;;;1.70;1.00;;;;;;;;;;5033551;28;20032;-52
2021/06/20 14:48:27;;;;;;;1.57;0.80;;;;;;;;;;5033242;28;20080;-52
2021/06/20 14:50:54;;;;;;;12.50;1.00;;;;;;;;;;5033400;28;20060;-52
2021/06/20 14:53:21;;;;;;;1.80;0.70;;;;;;;;;;5033250;28;20022;-52
2021/06/20 14:55:48;;;;;;;8.80;1.10;;;;;;;;;;5032610;28;20029;-52
2021/06/20 14:58:15;;;;;;;7.30;0.87;;;;;;;;;;5033034;28;20041;-52
2021/06/20 15:00:45;;;;;;;3.60;1.07;;;;;;;;;;5033053;28;20025;-52
2021/06/20 15:03:14;;;;;;;3.73;1.10;;;;;;;;;;5033118;28;20442;-52